createdAt,value
2019-04-21T00:05:12.765Z,11.70
2019-04-21T00:10:18.760Z,12.23
2019-04-21T00:15:22.870Z,11.57
2019-04-21T00:20:32.254Z,12.03
2019-04-21T00:25:42.896Z,11.77
2019-04-21T00:30:57.345Z,10.97
2019-04-21T00:35:55.004Z,12.27
2019-04-21T00:41:19.056Z,12.13
2019-04-21T00:46:25.055Z,12.00
2019-04-21T00:51:46.692Z,11.47
2019-04-21T00:56:50.043Z,9.37
2019-04-21T01:01:56.696Z,11.00
2019-04-21T01:07:09.329Z,9.97
2019-04-21T01:12:12.490Z,8.90
2019-04-21T01:17:21.797Z,9.67
2019-04-21T01:22:11.513Z,9.10
2019-04-21T01:27:39.720Z,9.63
2019-04-21T01:32:48.168Z,10.47
2019-04-21T01:37:55.727Z,10.47
2019-04-21T01:43:07.670Z,10.32
2019-04-21T01:48:13.054Z,10.67
2019-04-21T01:53:36.832Z,10.10
2019-04-21T01:58:40.229Z,10.90
2019-04-21T02:03:58.285Z,11.27
2019-04-21T02:09:06.819Z,10.97
2019-04-21T02:14:17.499Z,11.17
2019-04-21T02:19:18.027Z,8.83
2019-04-21T02:24:51.554Z,8.75
2019-04-21T02:29:41.147Z,8.33
2019-04-21T02:35:04.076Z,7.97
2019-04-21T02:40:11.535Z,8.70
2019-04-21T02:45:17.585Z,8.20
2019-04-21T02:55:30.408Z,8.17
2019-04-21T03:01:12.434Z,8.47
2019-04-21T03:06:27.133Z,8.53
2019-04-21T03:11:49.007Z,7.60
2019-04-21T03:16:31.037Z,8.43
2019-04-21T03:21:48.619Z,9.57
2019-04-21T03:27:14.284Z,9.80
2019-04-21T03:32:37.125Z,9.07
2019-04-21T03:37:42.500Z,8.53
2019-04-21T03:42:36.685Z,7.97
2019-04-21T03:47:30.904Z,8.67
2019-04-21T03:52:48.271Z,8.80
2019-04-21T03:58:10.705Z,8.27
2019-04-21T04:03:35.243Z,7.47
2019-04-21T04:18:55.753Z,7.40
2019-04-21T04:29:17.951Z,7.20
2019-04-21T04:34:24.472Z,7.03
2019-04-21T04:49:55.043Z,6.33
2019-04-21T05:00:19.781Z,6.97
2019-04-21T05:05:28.357Z,6.93
2019-04-21T05:10:41.795Z,6.43
2019-04-21T05:15:34.195Z,5.70
2019-04-21T05:20:58.953Z,5.85
2019-04-21T05:25:43.253Z,5.57
2019-04-21T05:31:13.064Z,5.40
2019-04-21T05:36:18.761Z,5.20
2019-04-21T05:41:22.169Z,4.87
2019-04-21T05:46:50.633Z,4.80
2019-04-21T05:52:00.361Z,5.30
2019-04-21T05:57:10.421Z,4.27
2019-04-21T06:02:23.635Z,4.23
2019-04-21T06:07:33.478Z,3.87
2019-04-21T06:12:43.129Z,4.20
2019-04-21T06:17:55.028Z,3.40
2019-04-21T06:22:56.524Z,3.13
2019-04-21T06:28:09.245Z,2.80
2019-04-21T06:33:15.357Z,2.80
2019-04-21T06:38:54.097Z,2.97
2019-04-21T06:43:56.320Z,2.63
2019-04-21T06:48:59.970Z,2.43
2019-04-21T06:54:09.512Z,2.30
2019-04-21T06:59:13.475Z,2.30
2019-04-21T07:09:52.703Z,2.37
2019-04-21T07:14:49.761Z,2.00
2019-04-21T07:19:55.416Z,2.10
2019-04-21T07:25:02.949Z,2.53
2019-04-21T07:35:31.758Z,8.10
2019-04-21T07:40:24.714Z,2.73
2019-04-21T07:45:31.863Z,7.17
2019-04-21T07:50:57.697Z,2.70
2019-04-21T07:55:50.940Z,3.60
2019-04-21T08:01:17.962Z,3.90
2019-04-21T08:06:31.896Z,5.57
2019-04-21T08:11:28.279Z,2.70
2019-04-21T08:16:46.131Z,5.07
2019-04-21T08:27:04.944Z,7.40
2019-04-21T08:32:11.028Z,3.23
2019-04-21T08:37:18.210Z,2.30
2019-04-21T08:42:26.749Z,2.93
2019-04-21T08:47:38.426Z,3.40
2019-04-21T08:52:49.037Z,2.73
2019-04-21T08:58:15.476Z,2.83
2019-04-21T09:03:14.205Z,2.87
2019-04-21T09:08:25.126Z,2.50
2019-04-21T09:13:29.640Z,2.60
2019-04-21T09:18:38.152Z,2.20
2019-04-21T09:23:54.295Z,2.50
2019-04-21T09:28:56.314Z,3.10
2019-04-21T09:33:52.565Z,4.73
2019-04-21T09:39:05.487Z,2.90
2019-04-21T09:44:15.160Z,2.70
2019-04-21T09:49:21.726Z,3.20
2019-04-21T09:54:31.158Z,3.37
2019-04-21T09:59:39.834Z,3.23
2019-04-21T10:04:42.483Z,3.23
2019-04-21T10:09:50.031Z,3.17
2019-04-21T10:14:57.422Z,3.07
2019-04-21T10:20:05.549Z,3.30
2019-04-21T10:25:14.419Z,2.97
2019-04-21T10:30:22.499Z,3.00
2019-04-21T10:35:30.927Z,2.70
2019-04-21T10:40:39.285Z,2.70
2019-04-21T10:45:48.896Z,2.60
2019-04-21T10:50:57.029Z,2.53
2019-04-21T10:56:15.426Z,2.20
2019-04-21T11:01:18.969Z,3.00
2019-04-21T11:06:26.549Z,3.13
2019-04-21T11:11:34.233Z,3.03
2019-04-21T11:16:41.573Z,2.13
2019-04-21T11:21:50.149Z,2.20
2019-04-21T11:26:58.185Z,2.60
2019-04-21T11:32:07.170Z,2.30
2019-04-21T11:37:16.340Z,2.20
2019-04-21T11:42:33.567Z,2.30
2019-04-21T11:47:46.014Z,2.20
2019-04-21T11:52:53.032Z,2.37
2019-04-21T11:58:00.297Z,1.97
2019-04-21T12:03:07.534Z,2.30
2019-04-21T12:08:22.941Z,1.73
2019-04-21T12:13:24.448Z,1.83
2019-04-21T12:18:32.459Z,2.07
2019-04-21T12:23:40.790Z,2.00
2019-04-21T12:28:48.002Z,2.10
2019-04-21T12:33:58.130Z,2.00
2019-04-21T12:39:10.558Z,2.00
2019-04-21T12:44:18.473Z,2.17
2019-04-21T12:49:25.743Z,1.97
2019-04-21T12:54:33.350Z,1.80
2019-04-21T12:59:40.367Z,2.00
2019-04-21T13:04:49.672Z,1.77
2019-04-21T13:09:58.061Z,1.92
2019-04-21T13:15:06.579Z,2.10
2019-04-21T13:20:14.963Z,2.17
2019-04-21T13:25:23.520Z,2.10
2019-04-21T13:30:30.920Z,1.67
2019-04-21T13:35:39.124Z,2.00
2019-04-21T13:41:25.796Z,1.80
2019-04-21T13:46:20.661Z,1.80
2019-04-21T13:51:29.150Z,1.95
2019-04-21T13:56:36.400Z,1.82
2019-04-21T14:01:43.793Z,1.80
2019-04-21T14:06:52.115Z,1.92
2019-04-21T14:11:59.587Z,2.00
2019-04-21T14:17:07.233Z,1.50
2019-04-21T14:22:16.013Z,1.77
2019-04-21T14:27:24.150Z,1.80
2019-04-21T14:32:31.843Z,1.47
2019-04-21T14:37:40.440Z,2.07
2019-04-21T14:42:47.866Z,1.70
2019-04-21T14:48:05.085Z,1.80
2019-04-21T14:53:21.385Z,2.25
2019-04-21T14:58:28.458Z,1.75
2019-04-21T15:03:35.637Z,2.12
2019-04-21T15:08:42.977Z,2.02
2019-04-21T15:13:51.398Z,1.90
2019-04-21T15:18:58.989Z,1.70
2019-04-21T15:24:06.616Z,1.80
2019-04-21T15:29:14.990Z,1.62
2019-04-21T15:34:25.272Z,1.98
2019-04-21T15:39:31.822Z,1.60
2019-04-21T15:44:38.979Z,1.82
2019-04-21T15:50:03.009Z,2.22
2019-04-21T15:55:12.715Z,1.80
2019-04-21T16:00:46.763Z,2.00
2019-04-21T16:05:54.089Z,2.27
2019-04-21T16:11:04.555Z,2.02
2019-04-21T16:16:10.667Z,2.02
2019-04-21T16:21:18.065Z,2.25
2019-04-21T16:26:26.650Z,2.20
2019-04-21T16:31:34.413Z,2.60
2019-04-21T16:36:41.500Z,2.02
2019-04-21T16:41:49.923Z,2.80
2019-04-21T16:46:57.169Z,2.30
2019-04-21T16:52:26.196Z,2.40
2019-04-21T16:57:59.903Z,2.23
2019-04-21T17:02:56.686Z,2.20
2019-04-21T17:08:04.142Z,2.30
2019-04-21T17:13:11.427Z,2.53
2019-04-21T17:18:36.184Z,2.20
2019-04-21T17:23:27.372Z,2.67
2019-04-21T17:28:34.538Z,2.83
2019-04-21T17:33:41.629Z,2.13
2019-04-21T17:38:48.591Z,2.47
2019-04-21T17:43:56.197Z,2.70
2019-04-21T17:49:03.460Z,3.20
2019-04-21T17:54:24.523Z,1.83
2019-04-21T17:59:58.412Z,3.00
2019-04-21T18:05:00.781Z,5.17
2019-04-21T18:15:03.963Z,5.50
2019-04-21T18:20:01.774Z,5.83
2019-04-21T18:25:28.147Z,7.43
2019-04-21T18:30:44.856Z,7.00
2019-04-21T18:36:13.495Z,8.50
2019-04-21T18:41:21.647Z,10.93
2019-04-21T18:47:14.707Z,10.00
2019-04-21T18:52:19.211Z,9.87
2019-04-21T18:57:28.710Z,9.10
2019-04-21T19:02:31.686Z,7.87
2019-04-21T19:07:56.622Z,8.30
2019-04-21T19:18:35.727Z,9.87
2019-04-21T19:23:21.514Z,12.37
2019-04-21T19:28:40.019Z,10.80
2019-04-21T19:33:33.593Z,10.00
2019-04-21T19:38:41.192Z,10.13
2019-04-21T19:44:01.455Z,10.23
2019-04-21T19:49:13.734Z,11.20
2019-04-21T19:54:03.507Z,9.10
2019-04-21T19:59:04.814Z,7.30
2019-04-21T20:04:12.451Z,8.58
2019-04-21T20:09:37.073Z,11.13
2019-04-21T20:15:04.919Z,10.27
2019-04-21T20:19:38.359Z,9.20
2019-04-21T20:24:54.014Z,7.10
2019-04-21T20:30:11.553Z,6.70
2019-04-21T20:35:34.639Z,5.73
2019-04-21T20:40:25.312Z,6.50
2019-04-21T20:45:41.689Z,5.60
2019-04-21T20:50:41.997Z,5.90
2019-04-21T20:55:52.731Z,6.20
2019-04-21T21:01:26.737Z,5.80
2019-04-21T21:06:17.125Z,5.50
2019-04-21T21:11:23.189Z,6.20
2019-04-21T21:16:41.869Z,7.70
2019-04-21T21:21:40.477Z,8.13
2019-04-21T21:26:52.102Z,7.87
2019-04-21T21:32:11.245Z,8.63
2019-04-21T21:37:21.651Z,8.97
2019-04-21T21:42:02.802Z,7.40
2019-04-21T21:47:25.290Z,6.17
2019-04-21T21:52:31.362Z,6.73
2019-04-21T21:57:28.319Z,7.07
2019-04-21T22:08:10.171Z,6.57
2019-04-21T22:13:21.479Z,6.10
2019-04-21T22:18:45.481Z,6.60
2019-04-21T22:23:44.129Z,6.80
2019-04-21T22:28:45.562Z,6.57
2019-04-21T22:33:57.476Z,6.60
2019-04-21T22:39:20.904Z,7.03
2019-04-21T22:44:18.866Z,6.80
2019-04-21T22:49:26.496Z,6.50
2019-04-21T22:54:39.085Z,6.07
2019-04-21T22:59:47.300Z,6.27
2019-04-21T23:04:54.772Z,6.00
2019-04-21T23:10:01.024Z,5.83
2019-04-21T23:15:13.934Z,5.03
2019-04-21T23:20:38.824Z,5.25
2019-04-21T23:25:42.353Z,5.03
2019-04-21T23:31:03.597Z,5.40
2019-04-21T23:35:49.290Z,5.77
2019-04-21T23:40:59.966Z,5.30
2019-04-21T23:46:14.766Z,5.60
2019-04-21T23:51:25.537Z,5.97
2019-04-21T23:56:29.974Z,6.17
